createdAt,value
2023-02-24T00:02:06.344Z,32.20
2023-02-24T00:04:40.968Z,28.40
2023-02-24T00:07:12.929Z,28.40
2023-02-24T00:09:41.606Z,30.90
2023-02-24T00:12:15.790Z,30.50
2023-02-24T00:14:45.565Z,31.00
2023-02-24T00:17:14.892Z,33.00
2023-02-24T00:19:44.128Z,34.70
2023-02-24T00:22:13.089Z,24.70
2023-02-24T00:24:42.379Z,30.00
2023-02-24T00:27:13.560Z,34.90
2023-02-24T00:29:42.242Z,38.30
2023-02-24T00:32:13.601Z,37.10
2023-02-24T00:34:43.518Z,36.90
2023-02-24T00:37:12.405Z,37.80
2023-02-24T00:39:42.240Z,37.00
2023-02-24T00:42:12.054Z,36.10
2023-02-24T00:44:45.895Z,35.50
2023-02-24T00:47:17.112Z,37.50
2023-02-24T00:49:46.312Z,40.60
2023-02-24T00:52:20.643Z,40.30
2023-02-24T00:54:50.342Z,37.60
2023-02-24T00:57:23.223Z,41.30
2023-02-24T00:59:54.863Z,44.00
2023-02-24T01:02:23.095Z,41.10
2023-02-24T01:04:52.282Z,42.90
2023-02-24T01:07:20.617Z,40.00
2023-02-24T01:09:50.700Z,41.80
2023-02-24T01:12:38.166Z,39.60
2023-02-24T01:15:09.662Z,37.40
2023-02-24T01:17:38.101Z,36.20
2023-02-24T01:20:18.560Z,35.80
2023-02-24T01:22:50.747Z,35.60
2023-02-24T01:25:20.964Z,34.00
2023-02-24T01:27:49.691Z,29.30
2023-02-24T01:30:18.781Z,27.50
2023-02-24T01:32:47.919Z,26.40
2023-02-24T01:35:16.695Z,26.70
2023-02-24T01:37:45.862Z,26.50
2023-02-24T01:40:21.150Z,25.60
2023-02-24T01:42:50.595Z,25.40
2023-02-24T01:45:25.704Z,25.00
2023-02-24T01:47:58.882Z,24.20
2023-02-24T01:50:29.367Z,25.40
2023-02-24T01:53:03.787Z,23.60
2023-02-24T01:55:41.086Z,25.30
2023-02-24T01:58:17.542Z,25.50
2023-02-24T02:00:47.432Z,24.90
2023-02-24T02:03:35.645Z,24.20
2023-02-24T02:06:09.403Z,24.90
2023-02-24T02:08:42.522Z,24.90
2023-02-24T02:11:15.176Z,24.80
2023-02-24T02:13:45.446Z,24.90
2023-02-24T02:16:28.255Z,24.40
2023-02-24T02:19:30.808Z,25.70
2023-02-24T02:22:27.286Z,25.90
2023-02-24T02:25:07.468Z,25.30
2023-02-24T02:27:58.883Z,23.60
2023-02-24T02:30:48.168Z,21.90
2023-02-24T02:33:39.860Z,23.40
2023-02-24T02:36:12.720Z,22.80
2023-02-24T02:39:03.864Z,21.80
2023-02-24T02:41:59.506Z,23.00
2023-02-24T02:44:45.199Z,21.40
2023-02-24T02:49:52.233Z,20.30
2023-02-24T02:52:32.715Z,20.00
2023-02-24T02:55:18.820Z,21.70
2023-02-24T02:57:52.158Z,23.60
2023-02-24T03:00:30.066Z,22.50
2023-02-24T03:03:07.619Z,22.80
2023-02-24T03:05:47.249Z,22.60
2023-02-24T03:08:21.798Z,24.40
2023-02-24T03:10:53.648Z,25.30
2023-02-24T03:13:26.743Z,26.30
2023-02-24T03:16:00.247Z,28.60
2023-02-24T03:18:33.839Z,28.70
2023-02-24T03:21:29.232Z,24.40
2023-02-24T03:23:57.797Z,28.20
2023-02-24T03:26:53.022Z,24.20
2023-02-24T03:29:32.660Z,28.00
2023-02-24T03:32:09.407Z,29.40
2023-02-24T03:34:51.586Z,28.70
2023-02-24T03:37:25.832Z,23.80
2023-02-24T03:39:57.948Z,25.10
2023-02-24T03:42:33.980Z,27.90
2023-02-24T03:45:03.076Z,27.70
2023-02-24T03:47:33.285Z,31.20
2023-02-24T03:50:01.694Z,31.40
2023-02-24T03:52:53.656Z,32.60
2023-02-24T03:55:34.388Z,32.50
2023-02-24T03:58:05.885Z,31.10
2023-02-24T04:00:58.929Z,30.30
2023-02-24T04:04:00.548Z,31.20
2023-02-24T04:06:56.331Z,30.50
2023-02-24T04:10:03.170Z,29.00
2023-02-24T04:12:53.421Z,30.50
2023-02-24T04:15:29.715Z,28.80
2023-02-24T04:18:04.759Z,27.60
2023-02-24T04:20:40.117Z,29.60
2023-02-24T04:23:16.032Z,31.20
2023-02-24T04:25:50.977Z,29.10
2023-02-24T04:28:24.941Z,28.60
2023-02-24T04:30:58.722Z,29.70
2023-02-24T04:33:27.726Z,29.40
2023-02-24T04:35:55.977Z,29.60
2023-02-24T04:38:26.347Z,31.70
2023-02-24T04:40:55.071Z,30.80
2023-02-24T04:43:24.290Z,33.50
2023-02-24T04:45:52.811Z,30.50
2023-02-24T04:48:21.161Z,28.30
2023-02-24T04:50:55.731Z,29.20
2023-02-24T04:53:28.355Z,29.30
2023-02-24T04:55:56.859Z,31.70
2023-02-24T04:58:30.153Z,27.90
2023-02-24T05:00:58.913Z,25.10
2023-02-24T05:03:30.406Z,26.90
2023-02-24T05:06:00.558Z,25.40
2023-02-24T05:08:31.446Z,29.50
2023-02-24T05:11:04.202Z,30.80
2023-02-24T05:13:33.956Z,30.90
2023-02-24T05:16:08.622Z,29.00
2023-02-24T05:18:38.476Z,30.00
2023-02-24T05:21:33.197Z,27.90
2023-02-24T05:24:11.721Z,29.20
2023-02-24T05:26:43.365Z,28.40
2023-02-24T05:29:12.631Z,31.30
2023-02-24T05:31:41.548Z,30.90
2023-02-24T05:34:16.271Z,31.60
2023-02-24T05:36:46.157Z,34.00
2023-02-24T05:39:19.523Z,34.00
2023-02-24T05:41:50.023Z,33.30
2023-02-24T05:44:23.226Z,35.00
2023-02-24T05:46:58.484Z,35.60
2023-02-24T05:49:34.094Z,32.60
2023-02-24T05:52:08.293Z,33.50
2023-02-24T05:54:42.113Z,33.10
2023-02-24T05:57:17.722Z,31.70
2023-02-24T05:59:48.815Z,31.70
2023-02-24T06:02:27.777Z,31.90
2023-02-24T06:04:57.287Z,32.30
2023-02-24T06:07:29.831Z,31.50
2023-02-24T06:09:58.997Z,29.70
2023-02-24T06:12:30.644Z,29.10
2023-02-24T06:14:59.591Z,27.10
2023-02-24T06:17:28.788Z,27.50
2023-02-24T06:19:57.478Z,27.10
2023-02-24T06:22:27.097Z,26.70
2023-02-24T06:24:57.211Z,25.50
2023-02-24T06:27:26.241Z,28.90
2023-02-24T06:29:55.714Z,26.90
2023-02-24T06:32:26.711Z,27.90
2023-02-24T06:34:57.654Z,29.20
2023-02-24T06:37:27.107Z,27.50
2023-02-24T06:39:58.417Z,31.00
2023-02-24T06:42:26.748Z,31.30
2023-02-24T06:44:55.184Z,29.20
2023-02-24T06:47:23.481Z,28.90
2023-02-24T06:49:51.901Z,30.70
2023-02-24T06:52:20.784Z,29.10
2023-02-24T06:54:49.902Z,26.10
2023-02-24T06:57:18.537Z,26.60
2023-02-24T06:59:49.188Z,25.90
2023-02-24T07:02:18.492Z,30.10
2023-02-24T07:04:47.774Z,28.30
2023-02-24T07:07:17.740Z,29.10
2023-02-24T07:09:46.733Z,26.80
2023-02-24T07:12:21.227Z,29.30
2023-02-24T07:14:50.754Z,28.50
2023-02-24T07:17:19.622Z,28.00
2023-02-24T07:19:48.342Z,29.70
2023-02-24T07:22:17.822Z,27.40
2023-02-24T07:24:46.597Z,37.50
2023-02-24T07:27:23.305Z,38.70
2023-02-24T07:29:54.004Z,36.80
2023-02-24T07:32:23.283Z,40.30
2023-02-24T07:34:53.200Z,40.90
2023-02-24T07:37:23.862Z,39.70
2023-02-24T07:39:52.788Z,38.10
2023-02-24T07:42:22.863Z,32.90
2023-02-24T07:44:59.109Z,29.50
2023-02-24T07:47:27.740Z,30.60
2023-02-24T07:49:56.335Z,27.50
2023-02-24T07:52:24.877Z,36.50
2023-02-24T07:54:55.347Z,36.90
2023-02-24T07:57:25.403Z,31.90
2023-02-24T07:59:54.845Z,30.70
2023-02-24T08:02:24.779Z,31.00
2023-02-24T08:04:54.696Z,28.90
2023-02-24T08:07:25.951Z,27.90
2023-02-24T08:10:13.242Z,26.90
2023-02-24T08:12:45.728Z,25.70
2023-02-24T08:15:24.665Z,26.30
2023-02-24T08:17:59.935Z,26.80
2023-02-24T08:20:51.727Z,25.30
2023-02-24T08:23:20.911Z,23.30
2023-02-24T08:25:51.663Z,22.00
2023-02-24T08:28:21.479Z,18.80
2023-02-24T08:30:50.654Z,19.40
2023-02-24T08:33:22.305Z,20.10
2023-02-24T08:36:01.573Z,22.20
2023-02-24T08:38:42.467Z,20.70
2023-02-24T08:41:18.530Z,18.70
2023-02-24T08:43:49.143Z,21.30
2023-02-24T08:46:25.947Z,22.70
2023-02-24T08:49:00.824Z,19.70
2023-02-24T08:51:35.262Z,22.90
2023-02-24T08:54:15.881Z,21.50
2023-02-24T08:56:56.437Z,28.60
2023-02-24T08:59:43.727Z,28.40
2023-02-24T09:02:23.695Z,26.90
2023-02-24T09:05:05.321Z,26.10
2023-02-24T09:07:42.073Z,24.70
2023-02-24T09:10:20.765Z,26.10
2023-02-24T09:12:49.508Z,23.20
2023-02-24T09:15:18.443Z,22.40
2023-02-24T09:17:47.043Z,23.30
2023-02-24T09:20:27.704Z,22.20
2023-02-24T09:23:00.023Z,24.40
2023-02-24T09:26:06.913Z,22.60
2023-02-24T09:28:48.924Z,22.20
2023-02-24T09:31:17.851Z,26.40
2023-02-24T09:33:51.556Z,24.90
2023-02-24T09:36:28.340Z,27.30
2023-02-24T09:39:02.438Z,28.00
2023-02-24T09:41:56.224Z,25.70
2023-02-24T09:44:35.732Z,28.50
2023-02-24T09:47:31.519Z,29.60
2023-02-24T09:50:14.487Z,29.40
2023-02-24T09:52:43.846Z,29.60
2023-02-24T09:55:25.409Z,27.90
2023-02-24T09:58:17.114Z,27.50
2023-02-24T10:01:33.861Z,27.30
2023-02-24T10:04:36.965Z,32.70
2023-02-24T10:07:29.268Z,32.70
2023-02-24T10:10:25.878Z,35.10
2023-02-24T10:13:17.397Z,32.70
2023-02-24T10:15:57.846Z,33.60
2023-02-24T10:18:33.532Z,41.60
2023-02-24T10:21:46.738Z,33.50
2023-02-24T10:24:23.087Z,29.50
2023-02-24T10:27:24.296Z,28.50
2023-02-24T10:30:01.291Z,24.50
2023-02-24T10:32:48.541Z,27.20
2023-02-24T10:35:21.072Z,28.60
2023-02-24T10:37:49.543Z,26.10
2023-02-24T10:40:26.792Z,30.10
2023-02-24T10:43:11.399Z,30.40
2023-02-24T10:45:48.090Z,31.10
2023-02-24T10:48:40.790Z,31.50
2023-02-24T10:51:30.432Z,33.20
2023-02-24T10:54:34.405Z,31.30
2023-02-24T10:57:18.261Z,31.10
2023-02-24T11:00:18.531Z,30.50
2023-02-24T11:03:07.141Z,26.60
2023-02-24T11:06:04.545Z,27.20
2023-02-24T11:08:54.848Z,28.70
2023-02-24T11:11:52.506Z,26.00
2023-02-24T11:14:42.850Z,23.60
2023-02-24T11:17:27.372Z,28.80
2023-02-24T11:20:00.197Z,27.40
2023-02-24T11:22:34.489Z,25.50
2023-02-24T11:25:29.189Z,29.00
2023-02-24T11:27:58.220Z,29.60
2023-02-24T11:30:34.913Z,30.20
2023-02-24T11:33:12.724Z,27.90
2023-02-24T11:36:15.119Z,29.80
2023-02-24T11:39:02.814Z,27.10
2023-02-24T11:41:51.385Z,25.30
2023-02-24T11:45:04.551Z,26.50
2023-02-24T11:47:41.845Z,24.50
2023-02-24T11:50:50.423Z,24.80
2023-02-24T11:53:30.999Z,26.50
2023-02-24T11:56:12.162Z,23.30
2023-02-24T11:58:54.926Z,27.10
2023-02-24T12:01:26.899Z,27.20
2023-02-24T12:04:11.206Z,28.80
2023-02-24T12:06:51.956Z,24.30
2023-02-24T12:09:26.808Z,19.30
2023-02-24T12:12:16.850Z,20.10
2023-02-24T12:14:53.869Z,19.90
2023-02-24T12:17:37.088Z,17.10
2023-02-24T12:20:26.222Z,16.50
2023-02-24T12:23:23.644Z,17.60
2023-02-24T12:26:18.099Z,20.30
2023-02-24T12:29:18.811Z,17.70
2023-02-24T12:32:03.208Z,18.40
2023-02-24T12:35:10.996Z,19.70
2023-02-24T12:37:45.252Z,18.60
2023-02-24T12:40:16.869Z,12.10
2023-02-24T12:43:03.520Z,16.40
2023-02-24T12:45:52.363Z,16.20
2023-02-24T12:48:35.378Z,16.90
2023-02-24T12:51:22.318Z,18.30
2023-02-24T12:54:00.367Z,17.60
2023-02-24T12:56:33.487Z,18.20
2023-02-24T12:59:05.802Z,17.20
2023-02-24T13:01:57.427Z,17.40
2023-02-24T13:04:32.384Z,18.50
2023-02-24T13:07:31.925Z,17.90
2023-02-24T13:10:19.397Z,16.90
2023-02-24T13:13:13.039Z,16.50
2023-02-24T13:15:55.916Z,16.70
2023-02-24T13:18:36.595Z,16.10
2023-02-24T13:21:07.779Z,16.60
2023-02-24T13:23:40.896Z,19.30
2023-02-24T13:26:10.943Z,18.10
2023-02-24T13:28:39.802Z,14.60
2023-02-24T13:31:09.642Z,16.80
2023-02-24T13:33:40.692Z,14.70
2023-02-24T13:36:12.897Z,17.20
2023-02-24T13:39:41.651Z,17.20
2023-02-24T13:42:22.324Z,16.10
2023-02-24T13:45:17.542Z,20.80
2023-02-24T13:48:10.720Z,16.60
2023-02-24T13:51:03.899Z,18.40
2023-02-24T13:53:52.057Z,21.30
2023-02-24T13:57:08.192Z,17.60
2023-02-24T13:59:57.623Z,12.80
2023-02-24T14:02:30.053Z,16.00
2023-02-24T14:05:08.600Z,17.00
2023-02-24T14:07:39.855Z,16.60
2023-02-24T14:10:21.700Z,16.70
2023-02-24T14:12:51.876Z,17.30
2023-02-24T14:15:24.414Z,15.00
2023-02-24T14:18:02.501Z,25.30
2023-02-24T14:20:38.115Z,23.30
2023-02-24T14:23:22.633Z,19.90
2023-02-24T14:26:04.734Z,20.90
2023-02-24T14:28:42.263Z,19.40
2023-02-24T14:31:14.701Z,19.00
2023-02-24T14:33:45.733Z,13.60
2023-02-24T14:36:18.439Z,19.70
2023-02-24T14:38:46.830Z,19.80
2023-02-24T14:41:25.035Z,17.50
2023-02-24T14:43:54.536Z,18.40
2023-02-24T14:46:24.314Z,17.70
2023-02-24T14:48:56.624Z,19.00
2023-02-24T14:51:36.688Z,18.20
2023-02-24T14:54:16.141Z,17.30
2023-02-24T14:56:45.221Z,21.30
2023-02-24T14:59:35.443Z,18.40
2023-02-24T15:02:11.715Z,16.50
2023-02-24T15:04:43.884Z,17.70
2023-02-24T15:07:22.705Z,18.90
2023-02-24T15:09:52.473Z,17.30
2023-02-24T15:12:31.584Z,16.90
2023-02-24T15:15:05.411Z,17.00
2023-02-24T15:17:40.396Z,19.00
2023-02-24T15:20:25.398Z,16.70
2023-02-24T15:22:54.990Z,15.80
2023-02-24T15:25:41.896Z,18.60
2023-02-24T15:28:36.263Z,17.90
2023-02-24T15:31:16.108Z,20.00
2023-02-24T15:34:02.342Z,20.00
2023-02-24T15:36:36.452Z,19.00
2023-02-24T15:39:09.248Z,21.50
2023-02-24T15:41:41.179Z,18.20
2023-02-24T15:44:29.564Z,17.00
2023-02-24T15:47:12.883Z,21.10
2023-02-24T15:49:41.443Z,18.20
2023-02-24T15:52:11.292Z,20.10
2023-02-24T15:54:42.817Z,21.30
2023-02-24T15:57:15.223Z,22.70
2023-02-24T15:59:44.415Z,23.00
2023-02-24T16:02:20.037Z,21.50
2023-02-24T16:04:49.680Z,21.30
2023-02-24T16:07:22.544Z,22.20
2023-02-24T16:09:53.792Z,23.20
2023-02-24T16:12:47.846Z,22.10
2023-02-24T16:15:21.422Z,20.80
2023-02-24T16:17:51.719Z,21.10
2023-02-24T16:20:31.774Z,22.00
2023-02-24T16:23:05.267Z,22.00
2023-02-24T16:25:39.110Z,22.50
2023-02-24T16:28:08.619Z,23.70
2023-02-24T16:30:37.519Z,23.10
2023-02-24T16:33:06.253Z,22.90
2023-02-24T16:35:34.739Z,21.40
2023-02-24T16:38:03.531Z,20.50
2023-02-24T16:40:38.733Z,18.00
2023-02-24T16:43:07.378Z,21.40
2023-02-24T16:45:38.321Z,20.60
2023-02-24T16:48:14.384Z,19.50
2023-02-24T16:50:44.139Z,20.20
2023-02-24T16:53:16.368Z,22.00
2023-02-24T16:55:44.938Z,20.30
2023-02-24T16:58:14.393Z,23.30
2023-02-24T17:00:46.565Z,22.30
2023-02-24T17:03:24.789Z,23.20
2023-02-24T17:05:54.065Z,30.40
2023-02-24T17:08:23.639Z,29.10
2023-02-24T17:10:52.333Z,25.80
2023-02-24T17:13:22.387Z,26.60
2023-02-24T17:15:57.597Z,26.10
2023-02-24T17:18:26.841Z,25.10
2023-02-24T17:20:55.248Z,25.30
2023-02-24T17:23:23.960Z,24.60
2023-02-24T17:25:55.122Z,23.30
2023-02-24T17:28:24.529Z,22.90
2023-02-24T17:30:52.986Z,23.70
2023-02-24T17:33:22.220Z,29.00
2023-02-24T17:35:50.936Z,28.70
2023-02-24T17:38:22.450Z,30.80
2023-02-24T17:40:51.086Z,28.00
2023-02-24T17:43:19.566Z,26.70
2023-02-24T17:45:47.974Z,26.10
2023-02-24T17:48:16.654Z,26.00
2023-02-24T17:50:46.026Z,27.50
2023-02-24T17:53:15.482Z,33.90
2023-02-24T17:56:01.030Z,31.30
2023-02-24T17:58:30.790Z,37.30
2023-02-24T18:01:02.403Z,40.30
2023-02-24T18:03:31.377Z,36.30
2023-02-24T18:06:07.425Z,36.80
2023-02-24T18:08:40.880Z,40.00
2023-02-24T18:11:14.335Z,43.90
2023-02-24T18:13:43.653Z,44.00
2023-02-24T18:16:15.221Z,44.40
2023-02-24T18:18:43.276Z,44.10
2023-02-24T18:21:11.508Z,41.10
2023-02-24T18:23:40.971Z,38.80
2023-02-24T18:26:11.951Z,38.30
2023-02-24T18:28:40.229Z,38.70
2023-02-24T18:31:14.214Z,33.40
2023-02-24T18:33:43.342Z,31.50
2023-02-24T18:36:12.927Z,32.40
2023-02-24T18:38:41.800Z,32.00
2023-02-24T18:41:15.768Z,31.00
2023-02-24T18:43:47.189Z,28.70
2023-02-24T18:46:16.228Z,31.20
2023-02-24T18:48:46.098Z,30.80
2023-02-24T18:51:17.666Z,31.60
2023-02-24T18:53:47.312Z,31.40
2023-02-24T18:56:18.331Z,29.10
2023-02-24T18:58:49.652Z,68.90
2023-02-24T19:01:39.832Z,61.00
2023-02-24T19:04:09.139Z,45.30
2023-02-24T19:06:37.764Z,45.50
2023-02-24T19:09:11.308Z,35.70
2023-02-24T19:11:40.827Z,34.60
2023-02-24T19:14:12.162Z,37.30
2023-02-24T19:16:40.924Z,39.30
2023-02-24T19:19:13.973Z,34.10
2023-02-24T19:21:45.613Z,34.40
2023-02-24T19:24:14.515Z,34.80
2023-02-24T19:26:46.076Z,32.30
2023-02-24T19:29:14.955Z,34.00
2023-02-24T19:31:44.542Z,36.20
2023-02-24T19:34:14.356Z,32.90
2023-02-24T19:36:42.858Z,40.00
2023-02-24T19:39:14.618Z,44.20
2023-02-24T19:41:43.193Z,42.10
2023-02-24T19:44:11.247Z,40.30
2023-02-24T19:46:39.651Z,40.30
2023-02-24T19:49:07.742Z,43.00
2023-02-24T19:51:35.905Z,41.70
2023-02-24T19:54:06.120Z,37.60
2023-02-24T19:56:36.951Z,42.00
2023-02-24T19:59:07.934Z,38.40
2023-02-24T20:01:36.225Z,42.70
2023-02-24T20:04:05.736Z,39.60
2023-02-24T20:06:40.187Z,38.00
2023-02-24T20:09:21.536Z,34.80
2023-02-24T20:11:51.481Z,37.70
2023-02-24T20:14:20.378Z,33.30
2023-02-24T20:16:48.788Z,35.20
2023-02-24T20:19:18.370Z,34.00
2023-02-24T20:21:47.708Z,32.70
2023-02-24T20:24:17.602Z,36.30
2023-02-24T20:26:48.204Z,36.90
2023-02-24T20:29:18.176Z,38.40
2023-02-24T20:31:46.719Z,35.00
2023-02-24T20:34:16.876Z,34.50
2023-02-24T20:36:45.689Z,34.80
2023-02-24T20:39:13.747Z,35.20
2023-02-24T20:41:42.645Z,33.80
2023-02-24T20:44:11.783Z,33.30
2023-02-24T20:46:40.095Z,34.80
2023-02-24T20:49:11.236Z,35.10
2023-02-24T20:51:39.688Z,33.80
2023-02-24T20:54:10.059Z,31.70
2023-02-24T20:56:41.846Z,31.10
2023-02-24T20:59:16.724Z,30.60
2023-02-24T21:01:47.802Z,30.90
2023-02-24T21:04:19.154Z,31.90
2023-02-24T21:06:48.313Z,29.90
2023-02-24T21:09:17.006Z,31.90
2023-02-24T21:11:45.136Z,33.10
2023-02-24T21:14:17.456Z,34.80
2023-02-24T21:16:49.832Z,33.90
2023-02-24T21:19:20.286Z,32.80
2023-02-24T21:21:48.488Z,34.50
2023-02-24T21:24:16.857Z,36.00
2023-02-24T21:26:46.174Z,37.10
2023-02-24T21:29:14.642Z,36.00
2023-02-24T21:31:43.332Z,36.90
2023-02-24T21:34:12.341Z,39.00
2023-02-24T21:36:40.521Z,37.00
2023-02-24T21:39:09.048Z,38.30
2023-02-24T21:41:37.184Z,34.80
2023-02-24T21:44:05.369Z,38.50
2023-02-24T21:46:33.853Z,35.90
2023-02-24T21:49:02.123Z,35.90
2023-02-24T21:51:30.315Z,34.80
2023-02-24T21:53:58.591Z,33.30
2023-02-24T21:56:29.897Z,33.00
2023-02-24T21:59:00.915Z,31.40
2023-02-24T22:01:41.387Z,30.30
2023-02-24T22:04:15.450Z,31.20
2023-02-24T22:06:45.073Z,31.40
2023-02-24T22:09:19.858Z,31.50
2023-02-24T22:14:17.940Z,30.10
2023-02-24T22:16:46.208Z,33.00
2023-02-24T22:19:14.600Z,42.10
2023-02-24T22:21:43.150Z,47.50
2023-02-24T22:24:14.486Z,48.60
2023-02-24T22:26:43.695Z,48.60
2023-02-24T22:29:12.394Z,47.90
2023-02-24T22:31:43.748Z,46.40
2023-02-24T22:34:13.502Z,45.30
2023-02-24T22:36:42.142Z,41.90
2023-02-24T22:39:10.917Z,41.60
2023-02-24T22:41:39.275Z,40.70
2023-02-24T22:44:07.628Z,37.70
2023-02-24T22:46:38.344Z,39.30
2023-02-24T22:49:07.074Z,40.30
2023-02-24T22:51:35.225Z,35.60
2023-02-24T22:54:04.500Z,37.50
2023-02-24T22:56:32.893Z,35.50
2023-02-24T22:59:01.394Z,35.40
2023-02-24T23:01:32.995Z,35.30
2023-02-24T23:04:03.821Z,34.80
2023-02-24T23:06:33.032Z,35.10
2023-02-24T23:09:02.657Z,33.40
2023-02-24T23:11:34.080Z,33.10
2023-02-24T23:14:06.188Z,32.30
2023-02-24T23:16:37.225Z,34.20
2023-02-24T23:19:10.835Z,33.80
2023-02-24T23:21:42.442Z,32.50
2023-02-24T23:24:13.630Z,30.70
2023-02-24T23:26:47.763Z,31.80
2023-02-24T23:29:20.612Z,31.40
2023-02-24T23:31:48.942Z,29.30
2023-02-24T23:34:17.122Z,30.90
2023-02-24T23:36:47.178Z,34.70
2023-02-24T23:39:18.493Z,34.90
2023-02-24T23:41:46.635Z,34.60
2023-02-24T23:44:14.861Z,34.80
2023-02-24T23:46:43.195Z,36.40
2023-02-24T23:49:11.730Z,35.70
2023-02-24T23:51:48.051Z,34.30
2023-02-24T23:54:18.479Z,35.60
2023-02-24T23:56:46.921Z,35.00
2023-02-24T23:59:15.515Z,35.40
